sensor_id;sensor_type;location;lat;lon;timestamp;P1;durP1;ratioP1;P2;durP2;ratioP2
48679;SDS011;34475;51.658;5.634;2023-02-28T00:00:00;3.4;;;3.3;;
48679;SDS011;34475;51.658;5.634;2023-02-28T00:01:00;3.4;;;3.3;;
48679;SDS011;34475;51.658;5.634;2023-02-28T00:02:00;3.4;;;3.3;;
48679;SDS011;34475;51.658;5.634;2023-02-28T00:03:01;3.4;;;3.3;;
48679;SDS011;34475;51.658;5.634;2023-02-28T00:04:00;3.4;;;3.3;;
48679;SDS011;34475;51.658;5.634;2023-02-28T00:05:03;3.4;;;3.3;;
48679;SDS011;34475;51.658;5.634;2023-02-28T00:06:03;3.4;;;3.3;;
48679;SDS011;34475;51.658;5.634;2023-02-28T00:07:00;3.4;;;3.3;;
48679;SDS011;34475;51.658;5.634;2023-02-28T00:08:00;3.4;;;3.3;;
48679;SDS011;34475;51.658;5.634;2023-02-28T00:09:01;3.4;;;3.3;;
48679;SDS011;34475;51.658;5.634;2023-02-28T00:10:00;3.4;;;3.3;;
48679;SDS011;34475;51.658;5.634;2023-02-28T00:11:03;3.4;;;3.3;;
48679;SDS011;34475;51.658;5.634;2023-02-28T00:12:09;3.4;;;3.3;;
48679;SDS011;34475;51.658;5.634;2023-02-28T00:13:03;3.4;;;3.3;;
48679;SDS011;34475;51.658;5.634;2023-02-28T00:14:00;3.4;;;3.3;;
48679;SDS011;34475;51.658;5.634;2023-02-28T00:15:01;3.4;;;3.3;;
48679;SDS011;34475;51.658;5.634;2023-02-28T00:16:03;3.4;;;3.3;;
48679;SDS011;34475;51.658;5.634;2023-02-28T00:17:00;3.4;;;3.3;;
48679;SDS011;34475;51.658;5.634;2023-02-28T00:18:01;3.4;;;3.3;;
48679;SDS011;34475;51.658;5.634;2023-02-28T00:19:00;4.0;;;3.9;;
48679;SDS011;34475;51.658;5.634;2023-02-28T00:20:02;4.0;;;3.9;;
48679;SDS011;34475;51.658;5.634;2023-02-28T00:21:01;4.0;;;3.9;;
48679;SDS011;34475;51.658;5.634;2023-02-28T00:22:00;4.0;;;3.9;;
48679;SDS011;34475;51.658;5.634;2023-02-28T00:23:00;4.0;;;3.9;;
48679;SDS011;34475;51.658;5.634;2023-02-28T00:24:00;4.0;;;3.9;;
48679;SDS011;34475;51.658;5.634;2023-02-28T00:25:00;4.0;;;3.9;;
48679;SDS011;34475;51.658;5.634;2023-02-28T00:26:01;4.0;;;3.9;;
48679;SDS011;34475;51.658;5.634;2023-02-28T00:27:00;4.0;;;3.9;;
48679;SDS011;34475;51.658;5.634;2023-02-28T00:28:00;4.0;;;3.9;;
48679;SDS011;34475;51.658;5.634;2023-02-28T00:29:00;4.0;;;3.9;;
48679;SDS011;34475;51.658;5.634;2023-02-28T00:30:01;4.0;;;3.9;;
48679;SDS011;34475;51.658;5.634;2023-02-28T00:31:00;4.0;;;3.9;;
48679;SDS011;34475;51.658;5.634;2023-02-28T00:32:00;4.0;;;3.9;;
48679;SDS011;34475;51.658;5.634;2023-02-28T00:33:00;4.0;;;3.9;;
48679;SDS011;34475;51.658;5.634;2023-02-28T00:34:00;4.0;;;3.9;;
48679;SDS011;34475;51.658;5.634;2023-02-28T00:35:01;4.0;;;3.9;;
48679;SDS011;34475;51.658;5.634;2023-02-28T00:36:01;4.0;;;3.9;;
48679;SDS011;34475;51.658;5.634;2023-02-28T00:37:00;4.0;;;3.9;;
48679;SDS011;34475;51.658;5.634;2023-02-28T00:38:00;3.7;;;3.6;;
48679;SDS011;34475;51.658;5.634;2023-02-28T00:39:00;3.7;;;3.6;;
48679;SDS011;34475;51.658;5.634;2023-02-28T00:40:00;3.7;;;3.6;;
48679;SDS011;34475;51.658;5.634;2023-02-28T00:41:04;3.7;;;3.6;;
48679;SDS011;34475;51.658;5.634;2023-02-28T00:42:01;3.7;;;3.6;;
48679;SDS011;34475;51.658;5.634;2023-02-28T00:43:00;3.7;;;3.6;;
48679;SDS011;34475;51.658;5.634;2023-02-28T00:44:00;3.7;;;3.6;;
48679;SDS011;34475;51.658;5.634;2023-02-28T00:45:01;3.7;;;3.6;;
48679;SDS011;34475;51.658;5.634;2023-02-28T00:46:01;3.7;;;3.6;;
48679;SDS011;34475;51.658;5.634;2023-02-28T00:47:00;3.7;;;3.6;;
48679;SDS011;34475;51.658;5.634;2023-02-28T00:48:00;3.7;;;3.6;;
48679;SDS011;34475;51.658;5.634;2023-02-28T00:49:00;3.7;;;3.6;;
48679;SDS011;34475;51.658;5.634;2023-02-28T00:50:00;3.7;;;3.6;;
48679;SDS011;34475;51.658;5.634;2023-02-28T00:51:01;3.7;;;3.6;;
48679;SDS011;34475;51.658;5.634;2023-02-28T00:52:00;3.7;;;3.6;;
48679;SDS011;34475;51.658;5.634;2023-02-28T00:53:00;3.7;;;3.6;;
48679;SDS011;34475;51.658;5.634;2023-02-28T00:54:00;3.7;;;3.6;;
48679;SDS011;34475;51.658;5.634;2023-02-28T00:55:00;3.7;;;3.6;;
48679;SDS011;34475;51.658;5.634;2023-02-28T00:56:00;3.7;;;3.6;;
48679;SDS011;34475;51.658;5.634;2023-02-28T00:57:01;3.7;;;3.6;;
48679;SDS011;34475;51.658;5.634;2023-02-28T00:58:00;4.4;;;4.2;;
48679;SDS011;34475;51.658;5.634;2023-02-28T00:59:00;4.4;;;4.2;;
48679;SDS011;34475;51.658;5.634;2023-02-28T01:00:01;4.4;;;4.2;;
48679;SDS011;34475;51.658;5.634;2023-02-28T01:01:00;4.4;;;4.2;;
48679;SDS011;34475;51.658;5.634;2023-02-28T01:02:00;4.4;;;4.2;;
48679;SDS011;34475;51.658;5.634;2023-02-28T01:03:00;4.4;;;4.2;;
48679;SDS011;34475;51.658;5.634;2023-02-28T01:04:00;4.4;;;4.2;;
48679;SDS011;34475;51.658;5.634;2023-02-28T01:05:00;4.4;;;4.2;;
48679;SDS011;34475;51.658;5.634;2023-02-28T01:06:00;4.4;;;4.2;;
48679;SDS011;34475;51.658;5.634;2023-02-28T01:07:00;4.4;;;4.2;;
48679;SDS011;34475;51.658;5.634;2023-02-28T01:08:00;4.4;;;4.2;;
48679;SDS011;34475;51.658;5.634;2023-02-28T01:09:00;4.4;;;4.2;;
48679;SDS011;34475;51.658;5.634;2023-02-28T01:10:00;4.4;;;4.2;;
48679;SDS011;34475;51.658;5.634;2023-02-28T01:11:08;4.4;;;4.2;;
48679;SDS011;34475;51.658;5.634;2023-02-28T01:12:00;4.4;;;4.2;;
48679;SDS011;34475;51.658;5.634;2023-02-28T01:13:00;4.4;;;4.2;;
48679;SDS011;34475;51.658;5.634;2023-02-28T01:14:01;4.4;;;4.2;;
48679;SDS011;34475;51.658;5.634;2023-02-28T01:15:00;4.4;;;4.2;;
48679;SDS011;34475;51.658;5.634;2023-02-28T01:16:00;4.4;;;4.2;;
48679;SDS011;34475;51.658;5.634;2023-02-28T01:17:01;4.4;;;4.2;;
48679;SDS011;34475;51.658;5.634;2023-02-28T01:18:00;4.2;;;4.1;;
48679;SDS011;34475;51.658;5.634;2023-02-28T01:19:00;4.2;;;4.1;;
48679;SDS011;34475;51.658;5.634;2023-02-28T01:20:00;4.2;;;4.1;;
48679;SDS011;34475;51.658;5.634;2023-02-28T01:21:05;4.2;;;4.1;;
48679;SDS011;34475;51.658;5.634;2023-02-28T01:22:02;4.2;;;4.1;;
48679;SDS011;34475;51.658;5.634;2023-02-28T01:23:00;4.2;;;4.1;;
48679;SDS011;34475;51.658;5.634;2023-02-28T01:24:01;4.2;;;4.1;;
48679;SDS011;34475;51.658;5.634;2023-02-28T01:25:00;4.2;;;4.1;;
48679;SDS011;34475;51.658;5.634;2023-02-28T01:26:10;4.2;;;4.1;;
48679;SDS011;34475;51.658;5.634;2023-02-28T01:27:00;4.2;;;4.1;;
48679;SDS011;34475;51.658;5.634;2023-02-28T01:28:00;4.2;;;4.1;;
48679;SDS011;34475;51.658;5.634;2023-02-28T01:29:00;4.2;;;4.1;;
48679;SDS011;34475;51.658;5.634;2023-02-28T01:30:00;4.2;;;4.1;;
48679;SDS011;34475;51.658;5.634;2023-02-28T01:31:01;4.2;;;4.1;;
48679;SDS011;34475;51.658;5.634;2023-02-28T01:32:00;4.2;;;4.1;;
48679;SDS011;34475;51.658;5.634;2023-02-28T01:33:00;4.2;;;4.1;;
48679;SDS011;34475;51.658;5.634;2023-02-28T01:34:00;4.2;;;4.1;;
48679;SDS011;34475;51.658;5.634;2023-02-28T01:35:00;4.2;;;4.1;;
48679;SDS011;34475;51.658;5.634;2023-02-28T01:36:04;4.2;;;4.1;;
48679;SDS011;34475;51.658;5.634;2023-02-28T01:37:01;4.2;;;4.1;;
48679;SDS011;34475;51.658;5.634;2023-02-28T01:38:10;3.9;;;3.8;;
48679;SDS011;34475;51.658;5.634;2023-02-28T01:39:00;3.9;;;3.8;;
48679;SDS011;34475;51.658;5.634;2023-02-28T01:40:00;3.9;;;3.8;;
48679;SDS011;34475;51.658;5.634;2023-02-28T01:41:00;3.9;;;3.8;;
48679;SDS011;34475;51.658;5.634;2023-02-28T01:42:00;3.9;;;3.8;;
48679;SDS011;34475;51.658;5.634;2023-02-28T01:43:00;3.9;;;3.8;;
48679;SDS011;34475;51.658;5.634;2023-02-28T01:44:04;3.9;;;3.8;;
48679;SDS011;34475;51.658;5.634;2023-02-28T01:45:04;3.9;;;3.8;;
48679;SDS011;34475;51.658;5.634;2023-02-28T01:46:00;3.9;;;3.8;;
48679;SDS011;34475;51.658;5.634;2023-02-28T01:47:00;3.9;;;3.8;;
48679;SDS011;34475;51.658;5.634;2023-02-28T01:48:04;3.9;;;3.8;;
48679;SDS011;34475;51.658;5.634;2023-02-28T01:49:06;3.9;;;3.8;;
48679;SDS011;34475;51.658;5.634;2023-02-28T01:50:03;3.9;;;3.8;;
48679;SDS011;34475;51.658;5.634;2023-02-28T01:51:04;3.9;;;3.8;;
48679;SDS011;34475;51.658;5.634;2023-02-28T01:52:00;3.9;;;3.8;;
48679;SDS011;34475;51.658;5.634;2023-02-28T01:53:05;3.9;;;3.8;;
48679;SDS011;34475;51.658;5.634;2023-02-28T01:54:07;3.9;;;3.8;;
48679;SDS011;34475;51.658;5.634;2023-02-28T01:55:02;3.9;;;3.8;;
48679;SDS011;34475;51.658;5.634;2023-02-28T01:56:03;3.9;;;3.8;;
48679;SDS011;34475;51.658;5.634;2023-02-28T01:57:05;3.9;;;3.8;;
48679;SDS011;34475;51.658;5.634;2023-02-28T01:58:02;3.6;;;3.5;;
48679;SDS011;34475;51.658;5.634;2023-02-28T01:59:01;3.6;;;3.5;;
48679;SDS011;34475;51.658;5.634;2023-02-28T02:00:05;3.6;;;3.5;;
48679;SDS011;34475;51.658;5.634;2023-02-28T02:01:02;3.6;;;3.5;;
48679;SDS011;34475;51.658;5.634;2023-02-28T02:02:02;3.6;;;3.5;;
48679;SDS011;34475;51.658;5.634;2023-02-28T02:03:06;3.6;;;3.5;;
48679;SDS011;34475;51.658;5.634;2023-02-28T02:04:02;3.6;;;3.5;;
48679;SDS011;34475;51.658;5.634;2023-02-28T02:06:02;3.6;;;3.5;;
48679;SDS011;34475;51.658;5.634;2023-02-28T02:07:01;3.6;;;3.5;;
48679;SDS011;34475;51.658;5.634;2023-02-28T02:08:05;3.6;;;3.5;;
48679;SDS011;34475;51.658;5.634;2023-02-28T02:09:01;3.6;;;3.5;;
48679;SDS011;34475;51.658;5.634;2023-02-28T02:11:01;3.6;;;3.5;;
48679;SDS011;34475;51.658;5.634;2023-02-28T02:12:08;3.6;;;3.5;;
48679;SDS011;34475;51.658;5.634;2023-02-28T02:13:14;3.6;;;3.5;;
48679;SDS011;34475;51.658;5.634;2023-02-28T02:14:15;3.6;;;3.5;;
48679;SDS011;34475;51.658;5.634;2023-02-28T02:15:09;3.6;;;3.5;;
48679;SDS011;34475;51.658;5.634;2023-02-28T02:17:11;3.6;;;3.5;;
48679;SDS011;34475;51.658;5.634;2023-02-28T02:18:09;4.1;;;4.0;;
48679;SDS011;34475;51.658;5.634;2023-02-28T02:23:05;4.1;;;4.0;;
48679;SDS011;34475;51.658;5.634;2023-02-28T02:26:20;4.1;;;4.0;;
48679;SDS011;34475;51.658;5.634;2023-02-28T02:29:10;4.1;;;4.0;;
48679;SDS011;34475;51.658;5.634;2023-02-28T02:31:28;4.1;;;4.0;;
48679;SDS011;34475;51.658;5.634;2023-02-28T02:33:06;4.1;;;4.0;;
48679;SDS011;34475;51.658;5.634;2023-02-28T02:35:10;4.1;;;4.0;;
48679;SDS011;34475;51.658;5.634;2023-02-28T02:36:07;4.1;;;4.0;;
48679;SDS011;34475;51.658;5.634;2023-02-28T02:37:03;4.1;;;4.0;;
48679;SDS011;34475;51.658;5.634;2023-02-28T02:38:09;3.5;;;3.4;;
48679;SDS011;34475;51.658;5.634;2023-02-28T02:39:13;3.5;;;3.4;;
48679;SDS011;34475;51.658;5.634;2023-02-28T02:41:17;3.5;;;3.4;;
48679;SDS011;34475;51.658;5.634;2023-02-28T02:42:05;3.5;;;3.4;;
48679;SDS011;34475;51.658;5.634;2023-02-28T02:43:03;3.5;;;3.4;;
48679;SDS011;34475;51.658;5.634;2023-02-28T02:45:09;3.5;;;3.4;;
48679;SDS011;34475;51.658;5.634;2023-02-28T02:46:06;3.5;;;3.4;;
48679;SDS011;34475;51.658;5.634;2023-02-28T02:47:08;3.5;;;3.4;;
48679;SDS011;34475;51.658;5.634;2023-02-28T02:48:01;3.5;;;3.4;;
48679;SDS011;34475;51.658;5.634;2023-02-28T02:49:04;3.5;;;3.4;;
48679;SDS011;34475;51.658;5.634;2023-02-28T02:50:04;3.5;;;3.4;;
48679;SDS011;34475;51.658;5.634;2023-02-28T02:51:04;3.5;;;3.4;;
48679;SDS011;34475;51.658;5.634;2023-02-28T02:52:03;3.5;;;3.4;;
48679;SDS011;34475;51.658;5.634;2023-02-28T02:53:02;3.5;;;3.4;;
48679;SDS011;34475;51.658;5.634;2023-02-28T02:54:13;3.5;;;3.4;;
48679;SDS011;34475;51.658;5.634;2023-02-28T02:55:02;3.5;;;3.4;;
48679;SDS011;34475;51.658;5.634;2023-02-28T02:56:02;3.5;;;3.4;;
48679;SDS011;34475;51.658;5.634;2023-02-28T02:57:05;3.5;;;3.4;;
48679;SDS011;34475;51.658;5.634;2023-02-28T02:58:04;3.9;;;3.8;;
48679;SDS011;34475;51.658;5.634;2023-02-28T02:59:04;3.9;;;3.8;;
48679;SDS011;34475;51.658;5.634;2023-02-28T03:00:03;3.9;;;3.8;;
48679;SDS011;34475;51.658;5.634;2023-02-28T03:01:02;3.9;;;3.8;;
48679;SDS011;34475;51.658;5.634;2023-02-28T03:02:04;3.9;;;3.8;;
48679;SDS011;34475;51.658;5.634;2023-02-28T03:03:01;3.9;;;3.8;;
48679;SDS011;34475;51.658;5.634;2023-02-28T03:04:04;3.9;;;3.8;;
48679;SDS011;34475;51.658;5.634;2023-02-28T03:05:02;3.9;;;3.8;;
48679;SDS011;34475;51.658;5.634;2023-02-28T03:06:02;3.9;;;3.8;;
48679;SDS011;34475;51.658;5.634;2023-02-28T03:07:00;3.9;;;3.8;;
48679;SDS011;34475;51.658;5.634;2023-02-28T03:08:02;3.9;;;3.8;;
48679;SDS011;34475;51.658;5.634;2023-02-28T03:09:01;3.9;;;3.8;;
48679;SDS011;34475;51.658;5.634;2023-02-28T03:10:01;3.9;;;3.8;;
48679;SDS011;34475;51.658;5.634;2023-02-28T03:11:03;3.9;;;3.8;;
48679;SDS011;34475;51.658;5.634;2023-02-28T03:12:01;3.9;;;3.8;;
48679;SDS011;34475;51.658;5.634;2023-02-28T03:14:11;3.9;;;3.8;;
48679;SDS011;34475;51.658;5.634;2023-02-28T03:15:13;3.9;;;3.8;;
48679;SDS011;34475;51.658;5.634;2023-02-28T03:18:06;3.6;;;3.5;;
48679;SDS011;34475;51.658;5.634;2023-02-28T03:21:12;3.6;;;3.5;;
48679;SDS011;34475;51.658;5.634;2023-02-28T03:23:08;3.6;;;3.5;;
48679;SDS011;34475;51.658;5.634;2023-02-28T03:24:14;3.6;;;3.5;;
48679;SDS011;34475;51.658;5.634;2023-02-28T03:25:09;3.6;;;3.5;;
48679;SDS011;34475;51.658;5.634;2023-02-28T03:26:11;3.6;;;3.5;;
48679;SDS011;34475;51.658;5.634;2023-02-28T03:27:09;3.6;;;3.5;;
48679;SDS011;34475;51.658;5.634;2023-02-28T03:28:05;3.6;;;3.5;;
48679;SDS011;34475;51.658;5.634;2023-02-28T03:29:14;3.6;;;3.5;;
48679;SDS011;34475;51.658;5.634;2023-02-28T03:30:04;3.6;;;3.5;;
48679;SDS011;34475;51.658;5.634;2023-02-28T03:33:03;3.6;;;3.5;;
48679;SDS011;34475;51.658;5.634;2023-02-28T03:35:07;3.6;;;3.5;;
48679;SDS011;34475;51.658;5.634;2023-02-28T03:36:05;3.6;;;3.5;;
48679;SDS011;34475;51.658;5.634;2023-02-28T03:37:04;3.6;;;3.5;;
48679;SDS011;34475;51.658;5.634;2023-02-28T03:38:07;3.5;;;3.4;;
48679;SDS011;34475;51.658;5.634;2023-02-28T03:39:07;3.5;;;3.4;;
48679;SDS011;34475;51.658;5.634;2023-02-28T03:40:06;3.5;;;3.4;;
48679;SDS011;34475;51.658;5.634;2023-02-28T03:41:08;3.5;;;3.4;;
48679;SDS011;34475;51.658;5.634;2023-02-28T03:42:07;3.5;;;3.4;;
48679;SDS011;34475;51.658;5.634;2023-02-28T03:43:04;3.5;;;3.4;;
48679;SDS011;34475;51.658;5.634;2023-02-28T03:44:05;3.5;;;3.4;;
48679;SDS011;34475;51.658;5.634;2023-02-28T03:45:04;3.5;;;3.4;;
48679;SDS011;34475;51.658;5.634;2023-02-28T03:46:04;3.5;;;3.4;;
48679;SDS011;34475;51.658;5.634;2023-02-28T03:47:04;3.5;;;3.4;;
48679;SDS011;34475;51.658;5.634;2023-02-28T03:48:01;3.5;;;3.4;;
48679;SDS011;34475;51.658;5.634;2023-02-28T03:49:07;3.5;;;3.4;;
48679;SDS011;34475;51.658;5.634;2023-02-28T03:50:07;3.5;;;3.4;;
48679;SDS011;34475;51.658;5.634;2023-02-28T03:51:02;3.5;;;3.4;;
48679;SDS011;34475;51.658;5.634;2023-02-28T03:52:02;3.5;;;3.4;;
48679;SDS011;34475;51.658;5.634;2023-02-28T03:53:06;3.5;;;3.4;;
48679;SDS011;34475;51.658;5.634;2023-02-28T03:54:05;3.5;;;3.4;;
48679;SDS011;34475;51.658;5.634;2023-02-28T03:55:07;3.5;;;3.4;;
48679;SDS011;34475;51.658;5.634;2023-02-28T03:56:11;3.5;;;3.4;;
48679;SDS011;34475;51.658;5.634;2023-02-28T03:57:07;3.4;;;3.3;;
48679;SDS011;34475;51.658;5.634;2023-02-28T03:58:07;3.4;;;3.3;;
48679;SDS011;34475;51.658;5.634;2023-02-28T03:59:12;3.4;;;3.3;;
48679;SDS011;34475;51.658;5.634;2023-02-28T04:00:06;3.4;;;3.3;;
48679;SDS011;34475;51.658;5.634;2023-02-28T04:01:13;3.4;;;3.3;;
48679;SDS011;34475;51.658;5.634;2023-02-28T04:02:01;3.4;;;3.3;;
48679;SDS011;34475;51.658;5.634;2023-02-28T04:03:01;3.4;;;3.3;;
48679;SDS011;34475;51.658;5.634;2023-02-28T04:04:01;3.4;;;3.3;;
48679;SDS011;34475;51.658;5.634;2023-02-28T04:05:01;3.4;;;3.3;;
48679;SDS011;34475;51.658;5.634;2023-02-28T04:06:00;3.4;;;3.3;;
48679;SDS011;34475;51.658;5.634;2023-02-28T04:07:03;3.4;;;3.3;;
48679;SDS011;34475;51.658;5.634;2023-02-28T04:08:05;3.4;;;3.3;;
48679;SDS011;34475;51.658;5.634;2023-02-28T04:09:02;3.4;;;3.3;;
48679;SDS011;34475;51.658;5.634;2023-02-28T04:10:00;3.4;;;3.3;;
48679;SDS011;34475;51.658;5.634;2023-02-28T04:11:06;3.4;;;3.3;;
48679;SDS011;34475;51.658;5.634;2023-02-28T04:12:00;3.4;;;3.3;;
48679;SDS011;34475;51.658;5.634;2023-02-28T04:13:00;3.4;;;3.3;;
48679;SDS011;34475;51.658;5.634;2023-02-28T04:14:02;3.4;;;3.3;;
48679;SDS011;34475;51.658;5.634;2023-02-28T04:15:00;3.4;;;3.3;;
48679;SDS011;34475;51.658;5.634;2023-02-28T04:16:00;3.4;;;3.3;;
48679;SDS011;34475;51.658;5.634;2023-02-28T04:17:00;3.3;;;3.2;;
48679;SDS011;34475;51.658;5.634;2023-02-28T04:18:00;3.3;;;3.2;;
48679;SDS011;34475;51.658;5.634;2023-02-28T04:19:03;3.3;;;3.2;;
48679;SDS011;34475;51.658;5.634;2023-02-28T04:20:00;3.3;;;3.2;;
48679;SDS011;34475;51.658;5.634;2023-02-28T04:21:00;3.3;;;3.2;;
48679;SDS011;34475;51.658;5.634;2023-02-28T04:22:00;3.3;;;3.2;;
48679;SDS011;34475;51.658;5.634;2023-02-28T04:23:00;3.3;;;3.2;;
48679;SDS011;34475;51.658;5.634;2023-02-28T04:24:01;3.3;;;3.2;;
48679;SDS011;34475;51.658;5.634;2023-02-28T04:25:00;3.3;;;3.2;;
48679;SDS011;34475;51.658;5.634;2023-02-28T04:26:00;3.3;;;3.2;;
48679;SDS011;34475;51.658;5.634;2023-02-28T04:27:01;3.3;;;3.2;;
48679;SDS011;34475;51.658;5.634;2023-02-28T04:28:00;3.3;;;3.2;;
48679;SDS011;34475;51.658;5.634;2023-02-28T04:29:02;3.3;;;3.2;;
48679;SDS011;34475;51.658;5.634;2023-02-28T04:30:00;3.3;;;3.2;;
48679;SDS011;34475;51.658;5.634;2023-02-28T04:31:03;3.3;;;3.2;;
48679;SDS011;34475;51.658;5.634;2023-02-28T04:32:02;3.3;;;3.2;;
48679;SDS011;34475;51.658;5.634;2023-02-28T04:33:01;3.3;;;3.2;;
48679;SDS011;34475;51.658;5.634;2023-02-28T04:34:00;3.3;;;3.2;;
48679;SDS011;34475;51.658;5.634;2023-02-28T04:35:00;3.3;;;3.2;;
48679;SDS011;34475;51.658;5.634;2023-02-28T04:36:03;3.3;;;3.2;;
48679;SDS011;34475;51.658;5.634;2023-02-28T04:37:10;3.4;;;3.3;;
48679;SDS011;34475;51.658;5.634;2023-02-28T04:38:00;3.4;;;3.3;;
48679;SDS011;34475;51.658;5.634;2023-02-28T04:39:00;3.4;;;3.3;;
48679;SDS011;34475;51.658;5.634;2023-02-28T04:40:02;3.4;;;3.3;;
48679;SDS011;34475;51.658;5.634;2023-02-28T04:41:00;3.4;;;3.3;;
48679;SDS011;34475;51.658;5.634;2023-02-28T04:42:00;3.4;;;3.3;;
48679;SDS011;34475;51.658;5.634;2023-02-28T04:43:00;3.4;;;3.3;;
48679;SDS011;34475;51.658;5.634;2023-02-28T04:44:01;3.4;;;3.3;;
48679;SDS011;34475;51.658;5.634;2023-02-28T04:45:02;3.4;;;3.3;;
48679;SDS011;34475;51.658;5.634;2023-02-28T04:46:03;3.4;;;3.3;;
48679;SDS011;34475;51.658;5.634;2023-02-28T04:47:00;3.4;;;3.3;;
48679;SDS011;34475;51.658;5.634;2023-02-28T04:48:00;3.4;;;3.3;;
48679;SDS011;34475;51.658;5.634;2023-02-28T04:49:00;3.4;;;3.3;;
48679;SDS011;34475;51.658;5.634;2023-02-28T04:50:00;3.4;;;3.3;;
48679;SDS011;34475;51.658;5.634;2023-02-28T04:51:03;3.4;;;3.3;;
48679;SDS011;34475;51.658;5.634;2023-02-28T04:52:00;3.4;;;3.3;;
48679;SDS011;34475;51.658;5.634;2023-02-28T04:53:00;3.4;;;3.3;;
48679;SDS011;34475;51.658;5.634;2023-02-28T04:54:00;3.4;;;3.3;;
48679;SDS011;34475;51.658;5.634;2023-02-28T04:55:01;3.4;;;3.3;;
48679;SDS011;34475;51.658;5.634;2023-02-28T04:56:00;3.4;;;3.3;;
48679;SDS011;34475;51.658;5.634;2023-02-28T04:57:01;4.0;;;3.9;;
48679;SDS011;34475;51.658;5.634;2023-02-28T04:58:00;4.0;;;3.9;;
48679;SDS011;34475;51.658;5.634;2023-02-28T04:59:00;4.0;;;3.9;;
48679;SDS011;34475;51.658;5.634;2023-02-28T05:00:00;4.0;;;3.9;;
48679;SDS011;34475;51.658;5.634;2023-02-28T05:01:04;4.0;;;3.9;;
48679;SDS011;34475;51.658;5.634;2023-02-28T05:02:06;4.0;;;3.9;;
48679;SDS011;34475;51.658;5.634;2023-02-28T05:03:01;4.0;;;3.9;;
48679;SDS011;34475;51.658;5.634;2023-02-28T05:04:02;4.0;;;3.9;;
48679;SDS011;34475;51.658;5.634;2023-02-28T05:05:00;4.0;;;3.9;;
48679;SDS011;34475;51.658;5.634;2023-02-28T05:06:00;4.0;;;3.9;;
48679;SDS011;34475;51.658;5.634;2023-02-28T05:07:01;4.0;;;3.9;;
48679;SDS011;34475;51.658;5.634;2023-02-28T05:08:00;4.0;;;3.9;;
48679;SDS011;34475;51.658;5.634;2023-02-28T05:09:00;4.0;;;3.9;;
48679;SDS011;34475;51.658;5.634;2023-02-28T05:10:00;4.0;;;3.9;;
48679;SDS011;34475;51.658;5.634;2023-02-28T05:11:01;4.0;;;3.9;;
48679;SDS011;34475;51.658;5.634;2023-02-28T05:12:00;4.0;;;3.9;;
48679;SDS011;34475;51.658;5.634;2023-02-28T05:13:00;4.0;;;3.9;;
48679;SDS011;34475;51.658;5.634;2023-02-28T05:14:02;4.0;;;3.9;;
48679;SDS011;34475;51.658;5.634;2023-02-28T05:15:02;4.0;;;3.9;;
48679;SDS011;34475;51.658;5.634;2023-02-28T05:16:00;4.0;;;3.9;;
48679;SDS011;34475;51.658;5.634;2023-02-28T05:17:00;3.1;;;3.0;;
48679;SDS011;34475;51.658;5.634;2023-02-28T05:18:00;3.1;;;3.0;;
48679;SDS011;34475;51.658;5.634;2023-02-28T05:19:00;3.1;;;3.0;;
48679;SDS011;34475;51.658;5.634;2023-02-28T05:20:10;3.1;;;3.0;;
48679;SDS011;34475;51.658;5.634;2023-02-28T05:21:02;3.1;;;3.0;;
48679;SDS011;34475;51.658;5.634;2023-02-28T05:22:00;3.1;;;3.0;;
48679;SDS011;34475;51.658;5.634;2023-02-28T05:23:01;3.1;;;3.0;;
48679;SDS011;34475;51.658;5.634;2023-02-28T05:24:03;3.1;;;3.0;;
48679;SDS011;34475;51.658;5.634;2023-02-28T05:25:00;3.1;;;3.0;;
48679;SDS011;34475;51.658;5.634;2023-02-28T05:26:00;3.1;;;3.0;;
48679;SDS011;34475;51.658;5.634;2023-02-28T05:27:00;3.1;;;3.0;;
48679;SDS011;34475;51.658;5.634;2023-02-28T05:28:00;3.1;;;3.0;;
48679;SDS011;34475;51.658;5.634;2023-02-28T05:29:00;3.1;;;3.0;;
48679;SDS011;34475;51.658;5.634;2023-02-28T05:30:03;3.1;;;3.0;;
48679;SDS011;34475;51.658;5.634;2023-02-28T05:31:00;3.1;;;3.0;;
48679;SDS011;34475;51.658;5.634;2023-02-28T05:32:00;3.1;;;3.0;;
48679;SDS011;34475;51.658;5.634;2023-02-28T05:33:00;3.1;;;3.0;;
48679;SDS011;34475;51.658;5.634;2023-02-28T05:34:01;3.1;;;3.0;;
48679;SDS011;34475;51.658;5.634;2023-02-28T05:35:00;3.1;;;3.0;;
48679;SDS011;34475;51.658;5.634;2023-02-28T05:36:00;3.1;;;3.0;;
48679;SDS011;34475;51.658;5.634;2023-02-28T05:37:00;3.3;;;3.2;;
48679;SDS011;34475;51.658;5.634;2023-02-28T05:38:00;3.3;;;3.2;;
48679;SDS011;34475;51.658;5.634;2023-02-28T05:39:00;3.3;;;3.2;;
48679;SDS011;34475;51.658;5.634;2023-02-28T05:40:01;3.3;;;3.2;;
48679;SDS011;34475;51.658;5.634;2023-02-28T05:41:05;3.3;;;3.2;;
48679;SDS011;34475;51.658;5.634;2023-02-28T05:42:00;3.3;;;3.2;;
48679;SDS011;34475;51.658;5.634;2023-02-28T05:43:00;3.3;;;3.2;;
48679;SDS011;34475;51.658;5.634;2023-02-28T05:44:01;3.3;;;3.2;;
48679;SDS011;34475;51.658;5.634;2023-02-28T05:45:00;3.3;;;3.2;;
48679;SDS011;34475;51.658;5.634;2023-02-28T05:46:03;3.3;;;3.2;;
48679;SDS011;34475;51.658;5.634;2023-02-28T05:47:00;3.3;;;3.2;;
48679;SDS011;34475;51.658;5.634;2023-02-28T05:48:00;3.3;;;3.2;;
48679;SDS011;34475;51.658;5.634;2023-02-28T05:49:00;3.3;;;3.2;;
48679;SDS011;34475;51.658;5.634;2023-02-28T05:50:01;3.3;;;3.2;;
48679;SDS011;34475;51.658;5.634;2023-02-28T05:51:01;3.3;;;3.2;;
48679;SDS011;34475;51.658;5.634;2023-02-28T05:52:00;3.3;;;3.2;;
48679;SDS011;34475;51.658;5.634;2023-02-28T05:53:00;3.3;;;3.2;;
48679;SDS011;34475;51.658;5.634;2023-02-28T05:54:01;3.3;;;3.2;;
48679;SDS011;34475;51.658;5.634;2023-02-28T05:55:00;3.3;;;3.2;;
48679;SDS011;34475;51.658;5.634;2023-02-28T05:56:00;3.3;;;3.2;;
48679;SDS011;34475;51.658;5.634;2023-02-28T05:57:00;3.5;;;3.4;;
48679;SDS011;34475;51.658;5.634;2023-02-28T05:58:00;3.5;;;3.4;;
48679;SDS011;34475;51.658;5.634;2023-02-28T05:59:00;3.5;;;3.4;;
48679;SDS011;34475;51.658;5.634;2023-02-28T06:00:00;3.5;;;3.4;;
48679;SDS011;34475;51.658;5.634;2023-02-28T06:01:20;3.5;;;3.4;;
48679;SDS011;34475;51.658;5.634;2023-02-28T06:02:00;3.5;;;3.4;;
48679;SDS011;34475;51.658;5.634;2023-02-28T06:03:01;3.5;;;3.4;;
48679;SDS011;34475;51.658;5.634;2023-02-28T06:04:01;3.5;;;3.4;;
48679;SDS011;34475;51.658;5.634;2023-02-28T06:05:00;3.5;;;3.4;;
48679;SDS011;34475;51.658;5.634;2023-02-28T06:06:00;3.5;;;3.4;;
48679;SDS011;34475;51.658;5.634;2023-02-28T06:07:01;3.5;;;3.4;;
48679;SDS011;34475;51.658;5.634;2023-02-28T06:08:00;3.5;;;3.4;;
48679;SDS011;34475;51.658;5.634;2023-02-28T06:09:00;3.5;;;3.4;;
48679;SDS011;34475;51.658;5.634;2023-02-28T06:10:00;3.5;;;3.4;;
48679;SDS011;34475;51.658;5.634;2023-02-28T06:11:03;3.5;;;3.4;;
48679;SDS011;34475;51.658;5.634;2023-02-28T06:12:04;3.5;;;3.4;;
48679;SDS011;34475;51.658;5.634;2023-02-28T06:13:02;3.5;;;3.4;;
48679;SDS011;34475;51.658;5.634;2023-02-28T06:14:01;3.5;;;3.4;;
48679;SDS011;34475;51.658;5.634;2023-02-28T06:15:00;3.5;;;3.4;;
48679;SDS011;34475;51.658;5.634;2023-02-28T06:16:01;3.5;;;3.4;;
48679;SDS011;34475;51.658;5.634;2023-02-28T06:17:01;3.1;;;3.0;;
48679;SDS011;34475;51.658;5.634;2023-02-28T06:18:00;3.1;;;3.0;;
48679;SDS011;34475;51.658;5.634;2023-02-28T06:19:02;3.1;;;3.0;;
48679;SDS011;34475;51.658;5.634;2023-02-28T06:20:00;3.1;;;3.0;;
48679;SDS011;34475;51.658;5.634;2023-02-28T06:21:00;3.1;;;3.0;;
48679;SDS011;34475;51.658;5.634;2023-02-28T06:22:00;3.1;;;3.0;;
48679;SDS011;34475;51.658;5.634;2023-02-28T06:23:00;3.1;;;3.0;;
48679;SDS011;34475;51.658;5.634;2023-02-28T06:24:01;3.1;;;3.0;;
48679;SDS011;34475;51.658;5.634;2023-02-28T06:25:00;3.1;;;3.0;;
48679;SDS011;34475;51.658;5.634;2023-02-28T06:26:00;3.1;;;3.0;;
48679;SDS011;34475;51.658;5.634;2023-02-28T06:27:04;3.1;;;3.0;;
48679;SDS011;34475;51.658;5.634;2023-02-28T06:28:00;3.1;;;3.0;;
48679;SDS011;34475;51.658;5.634;2023-02-28T06:29:00;3.1;;;3.0;;
48679;SDS011;34475;51.658;5.634;2023-02-28T06:30:00;3.1;;;3.0;;
48679;SDS011;34475;51.658;5.634;2023-02-28T06:31:05;3.1;;;3.0;;
48679;SDS011;34475;51.658;5.634;2023-02-28T06:32:01;3.1;;;3.0;;
48679;SDS011;34475;51.658;5.634;2023-02-28T06:33:00;3.1;;;3.0;;
48679;SDS011;34475;51.658;5.634;2023-02-28T06:34:00;3.1;;;3.0;;
48679;SDS011;34475;51.658;5.634;2023-02-28T06:35:00;3.1;;;3.0;;
48679;SDS011;34475;51.658;5.634;2023-02-28T06:36:01;3.1;;;3.0;;
48679;SDS011;34475;51.658;5.634;2023-02-28T06:37:02;3.5;;;3.4;;